createdAt,value
2023-07-01T00:00:32.963Z,99840.84
2023-07-01T00:03:08.952Z,99843.41
2023-07-01T00:05:37.233Z,99841.00
2023-07-01T00:08:06.153Z,99842.91
2023-07-01T00:10:34.620Z,99843.75
2023-07-01T00:13:05.256Z,99836.75
2023-07-01T00:15:36.862Z,99842.38
2023-07-01T00:18:08.980Z,99836.56
2023-07-01T00:20:37.409Z,99839.00
2023-07-01T00:23:06.099Z,99832.16
2023-07-01T00:25:34.316Z,99828.59
2023-07-01T00:28:05.313Z,99821.69
2023-07-01T00:30:33.829Z,99819.50
2023-07-01T00:33:02.500Z,99826.06
2023-07-01T00:35:32.433Z,99823.00
2023-07-01T00:38:01.352Z,99818.78
2023-07-01T00:40:29.503Z,99821.88
2023-07-01T00:42:58.179Z,99821.22
2023-07-01T00:45:26.725Z,99815.09
2023-07-01T00:47:55.210Z,99813.19
2023-07-01T00:50:23.649Z,99813.59
2023-07-01T00:52:53.448Z,99811.88
2023-07-01T00:55:21.835Z,99817.16
2023-07-01T00:57:55.441Z,99810.22
2023-07-01T01:00:23.947Z,99800.53
2023-07-01T01:02:56.675Z,99803.53
2023-07-01T01:05:33.721Z,99804.50
2023-07-01T01:10:05.288Z,99798.69
2023-07-01T01:12:35.935Z,99804.34
2023-07-01T01:15:06.025Z,99803.78
2023-07-01T01:17:41.149Z,99799.75
2023-07-01T01:20:17.719Z,99789.44
2023-07-01T01:22:55.262Z,99765.44
2023-07-01T01:25:31.068Z,99788.81
2023-07-01T01:28:01.776Z,99794.38
2023-07-01T01:30:33.700Z,99777.31
2023-07-01T01:33:03.282Z,99788.94
2023-07-01T01:35:31.677Z,99781.16
2023-07-01T01:38:06.858Z,99775.09
2023-07-01T01:40:41.367Z,99780.28
2023-07-01T01:43:17.806Z,99768.47
2023-07-01T01:45:46.818Z,99767.63
2023-07-01T01:48:15.556Z,99774.00
2023-07-01T01:50:50.002Z,99774.09
2023-07-01T01:53:19.609Z,99764.47
2023-07-01T01:55:51.596Z,99767.94
2023-07-01T01:58:21.789Z,99767.09
2023-07-01T02:00:50.477Z,99766.78
2023-07-01T02:03:18.977Z,99768.41
2023-07-01T02:05:47.719Z,99772.28
2023-07-01T02:08:16.035Z,99769.13
2023-07-01T02:10:46.972Z,99759.75
2023-07-01T02:13:15.548Z,99770.81
2023-07-01T02:15:45.268Z,99769.31
2023-07-01T02:18:13.496Z,99762.56
2023-07-01T02:20:45.500Z,99751.38
2023-07-01T02:23:13.886Z,99761.09
2023-07-01T02:25:42.158Z,99761.25
2023-07-01T02:28:11.031Z,99756.78
2023-07-01T02:30:42.209Z,99765.06
2023-07-01T02:33:15.883Z,99764.34
2023-07-01T02:35:44.074Z,99759.25
2023-07-01T02:38:16.199Z,99764.94
2023-07-01T02:40:46.664Z,99766.09
2023-07-01T02:43:15.104Z,99767.28
2023-07-01T02:45:45.888Z,99764.75
2023-07-01T02:48:18.603Z,99766.91
2023-07-01T02:50:49.748Z,99766.00
2023-07-01T02:53:19.103Z,99754.44
2023-07-01T02:55:49.916Z,99759.13
2023-07-01T02:58:20.938Z,99761.72
2023-07-01T03:00:51.427Z,99767.50
2023-07-01T03:03:21.032Z,99765.84
2023-07-01T03:05:49.534Z,99769.31
2023-07-01T03:08:20.026Z,99759.63
2023-07-01T03:10:48.493Z,99760.06
2023-07-01T03:13:17.642Z,99761.16
2023-07-01T03:15:46.380Z,99755.19
2023-07-01T03:18:14.556Z,99763.19
2023-07-01T03:20:44.083Z,99762.22
2023-07-01T03:23:12.377Z,99762.47
2023-07-01T03:25:40.615Z,99760.88
2023-07-01T03:28:10.186Z,99760.00
2023-07-01T03:30:38.292Z,99754.72
2023-07-01T03:33:07.621Z,99746.41
2023-07-01T03:35:36.113Z,99759.56
2023-07-01T03:38:06.118Z,99757.00
2023-07-01T03:40:36.542Z,99764.41
2023-07-01T03:43:06.861Z,99751.03
2023-07-01T03:45:34.999Z,99756.22
2023-07-01T03:48:03.275Z,99754.19
2023-07-01T03:50:31.482Z,99751.66
2023-07-01T03:52:59.624Z,99753.22
2023-07-01T03:55:29.285Z,99753.22
2023-07-01T03:57:57.382Z,99750.88
2023-07-01T04:00:25.417Z,99717.47
2023-07-01T04:02:56.380Z,99746.44
2023-07-01T04:05:24.566Z,99741.88
2023-07-01T04:07:52.747Z,99736.31
2023-07-01T04:10:20.973Z,99737.88
2023-07-01T04:12:50.498Z,99742.22
2023-07-01T04:15:18.917Z,99745.00
2023-07-01T04:17:50.144Z,99741.56
2023-07-01T04:20:20.980Z,99741.59
2023-07-01T04:22:50.043Z,99743.41
2023-07-01T04:25:20.316Z,99747.22
2023-07-01T04:27:52.227Z,99736.84
2023-07-01T04:30:20.403Z,99745.03
2023-07-01T04:32:48.642Z,99730.22
2023-07-01T04:35:19.394Z,99728.84
2023-07-01T04:37:47.940Z,99719.47
2023-07-01T04:40:16.671Z,99722.47
2023-07-01T04:42:50.209Z,99713.09
2023-07-01T04:45:22.457Z,99720.69
2023-07-01T04:47:50.801Z,99728.09
2023-07-01T04:50:19.296Z,99723.22
2023-07-01T04:52:47.413Z,99724.72
2023-07-01T04:55:16.421Z,99719.38
2023-07-01T05:00:32.076Z,99716.78
2023-07-01T05:03:00.846Z,99718.03
2023-07-01T05:05:29.195Z,99725.03
2023-07-01T05:07:57.487Z,99718.59
2023-07-01T05:10:25.926Z,99714.06
2023-07-01T05:12:56.128Z,99717.94
2023-07-01T05:15:24.451Z,99717.75
2023-07-01T05:17:56.536Z,99714.03
2023-07-01T05:20:24.832Z,99723.28
2023-07-01T05:22:53.043Z,99732.53
2023-07-01T05:25:23.514Z,99722.56
2023-07-01T05:27:51.873Z,99723.44
2023-07-01T05:30:22.551Z,99716.28
2023-07-01T05:32:50.867Z,99720.16
2023-07-01T05:35:20.484Z,99726.06
2023-07-01T05:37:49.037Z,99721.53
2023-07-01T05:40:17.452Z,99721.63
2023-07-01T05:42:48.180Z,99719.00
2023-07-01T05:45:16.369Z,99718.59
2023-07-01T05:47:44.604Z,99715.09
2023-07-01T05:50:12.827Z,99714.44
2023-07-01T05:52:44.598Z,99719.63
2023-07-01T05:55:12.894Z,99712.75
2023-07-01T05:57:43.721Z,99707.00
2023-07-01T06:00:17.250Z,99705.75
2023-07-01T06:02:45.436Z,99710.59
2023-07-01T06:05:13.703Z,99715.91
2023-07-01T06:11:03.079Z,99718.09
2023-07-01T06:13:31.293Z,99708.75
2023-07-01T06:15:59.484Z,99714.03
2023-07-01T06:18:27.761Z,99713.16
2023-07-01T06:20:55.930Z,99715.91
2023-07-01T06:23:24.212Z,99695.44
2023-07-01T06:25:52.586Z,99710.44
2023-07-01T06:28:22.213Z,99712.47
2023-07-01T06:30:50.625Z,99704.97
2023-07-01T06:33:19.013Z,99710.81
2023-07-01T06:35:47.516Z,99702.19
2023-07-01T06:38:16.001Z,99704.47
2023-07-01T06:40:44.944Z,99703.28
2023-07-01T06:43:13.392Z,99704.09
2023-07-01T06:45:45.533Z,99698.28
2023-07-01T06:48:13.921Z,99694.69
2023-07-01T06:50:42.059Z,99702.78
2023-07-01T06:53:10.343Z,99706.03
2023-07-01T06:55:38.501Z,99703.94
2023-07-01T06:58:06.791Z,99699.28
2023-07-01T07:00:35.079Z,99705.47
2023-07-01T07:03:05.088Z,99707.94
2023-07-01T07:05:34.387Z,99689.34
2023-07-01T07:08:02.990Z,99697.47
2023-07-01T07:10:31.376Z,99692.19
2023-07-01T07:12:59.641Z,99696.47
2023-07-01T07:15:27.804Z,99694.84
2023-07-01T07:17:56.358Z,99692.22
2023-07-01T07:20:28.391Z,99658.72
2023-07-01T07:22:56.856Z,99693.31
2023-07-01T07:25:25.235Z,99702.31
2023-07-01T07:27:55.654Z,99689.53
2023-07-01T07:30:25.115Z,99696.63
2023-07-01T07:32:53.269Z,99698.25
2023-07-01T07:35:23.961Z,99698.25
2023-07-01T07:37:53.833Z,99699.41
2023-07-01T07:40:25.043Z,99686.06
2023-07-01T07:42:56.027Z,99671.34
2023-07-01T07:45:24.845Z,99683.59
2023-07-01T07:47:53.467Z,99678.66
2023-07-01T07:50:23.436Z,99674.28
2023-07-01T07:52:53.214Z,99676.47
2023-07-01T07:55:21.625Z,99680.06
2023-07-01T07:57:50.083Z,99679.03
2023-07-01T08:00:18.851Z,99665.06
2023-07-01T08:02:49.193Z,99667.81
2023-07-01T08:05:18.401Z,99648.66
2023-07-01T08:07:48.390Z,99633.34
2023-07-01T08:10:19.043Z,99654.47
2023-07-01T08:12:47.701Z,99654.78
2023-07-01T08:15:15.936Z,99662.97
2023-07-01T08:17:44.316Z,99658.59
2023-07-01T08:20:14.030Z,99656.59
2023-07-01T08:22:42.414Z,99638.34
2023-07-01T08:25:11.139Z,99646.16
2023-07-01T08:27:40.967Z,99636.72
2023-07-01T08:30:12.948Z,99649.84
2023-07-01T08:32:41.345Z,99624.97
2023-07-01T08:35:10.255Z,99650.81
2023-07-01T08:37:38.512Z,99649.09
2023-07-01T08:40:08.255Z,99632.38
2023-07-01T08:42:46.289Z,99638.50
2023-07-01T08:45:14.912Z,99638.81
2023-07-01T08:47:44.111Z,99632.53
2023-07-01T08:50:21.134Z,99627.53
2023-07-01T08:52:58.124Z,99627.41
2023-07-01T08:55:27.075Z,99625.53
2023-07-01T08:57:56.799Z,99629.09
2023-07-01T09:00:25.389Z,99621.25
2023-07-01T09:02:56.693Z,99624.25
2023-07-01T09:05:27.568Z,99628.78
2023-07-01T09:07:55.905Z,99621.13
2023-07-01T09:10:24.035Z,99616.25
2023-07-01T09:12:53.601Z,99614.25
2023-07-01T09:15:26.507Z,99604.53
2023-07-01T09:17:54.902Z,99616.13
2023-07-01T09:20:35.350Z,99605.78
2023-07-01T09:23:03.517Z,99613.47
2023-07-01T09:25:31.982Z,99618.59
2023-07-01T09:28:00.620Z,99618.00
2023-07-01T09:30:33.891Z,99613.53
2023-07-01T09:33:12.574Z,99617.59
2023-07-01T09:35:45.411Z,99616.75
2023-07-01T09:38:14.576Z,99612.31
2023-07-01T09:40:42.847Z,99608.22
2023-07-01T09:43:11.233Z,99612.50
2023-07-01T09:45:54.140Z,99603.47
2023-07-01T09:48:23.503Z,99598.50
2023-07-01T09:50:54.045Z,99604.00
2023-07-01T09:53:22.895Z,99589.25
2023-07-01T09:55:51.567Z,99601.03
2023-07-01T09:58:22.623Z,99591.84
2023-07-01T10:00:52.515Z,99599.03
2023-07-01T10:03:21.359Z,99596.31
2023-07-01T10:05:52.483Z,99592.28
2023-07-01T10:08:21.907Z,99596.72
2023-07-01T10:11:05.162Z,99586.25
2023-07-01T10:13:39.048Z,99592.38
2023-07-01T10:16:10.117Z,99590.69
2023-07-01T10:18:41.004Z,99595.53
2023-07-01T10:21:30.307Z,99589.25
2023-07-01T10:24:00.263Z,99555.94
2023-07-01T10:26:41.129Z,99579.66
2023-07-01T10:29:40.965Z,99591.69
2023-07-01T10:32:33.564Z,99582.38
2023-07-01T10:35:22.937Z,99577.53
2023-07-01T10:38:21.900Z,99599.22
2023-07-01T10:40:52.272Z,99596.69
2023-07-01T10:43:26.818Z,99589.34
2023-07-01T10:46:09.884Z,99597.75
2023-07-01T10:48:40.883Z,99584.59
2023-07-01T10:51:12.867Z,99594.19
2023-07-01T10:54:01.456Z,99571.75
2023-07-01T10:56:31.131Z,99581.94
2023-07-01T10:59:22.798Z,99585.34
2023-07-01T11:01:57.445Z,99585.22
2023-07-01T11:05:06.647Z,99588.31
2023-07-01T11:07:37.726Z,99579.34
2023-07-01T11:12:10.444Z,99584.94
2023-07-01T11:14:41.341Z,99564.09
2023-07-01T11:17:11.871Z,99574.59
2023-07-01T11:19:40.368Z,99580.84
2023-07-01T11:22:12.666Z,99578.06
2023-07-01T11:24:41.405Z,99548.63
2023-07-01T11:27:12.516Z,99576.16
2023-07-01T11:29:42.039Z,99570.03
2023-07-01T11:32:14.258Z,99569.94
2023-07-01T11:34:43.692Z,99564.69
2023-07-01T11:37:27.410Z,99566.69
2023-07-01T11:39:56.313Z,99568.56
2023-07-01T11:42:28.564Z,99566.88
2023-07-01T11:44:57.033Z,99570.19
2023-07-01T11:47:25.408Z,99567.91
2023-07-01T11:49:54.244Z,99557.50
2023-07-01T11:52:26.897Z,99563.06
2023-07-01T11:54:57.809Z,99566.19
2023-07-01T11:57:33.324Z,99568.63
2023-07-01T12:00:06.746Z,99564.78
2023-07-01T12:02:37.669Z,99557.66
2023-07-01T12:05:06.864Z,99551.25
2023-07-01T12:07:35.145Z,99550.50
2023-07-01T12:10:22.217Z,99548.91
2023-07-01T12:12:51.984Z,99533.63
2023-07-01T12:15:20.427Z,99536.75
2023-07-01T12:17:48.884Z,99537.06
2023-07-01T12:20:17.072Z,99533.09
2023-07-01T12:22:45.182Z,99528.06
2023-07-01T12:25:13.584Z,99531.78
2023-07-01T12:27:42.021Z,99527.66
2023-07-01T12:30:14.828Z,99527.03
2023-07-01T12:32:43.142Z,99524.25
2023-07-01T12:35:12.080Z,99515.13
2023-07-01T12:37:42.059Z,99524.91
2023-07-01T12:40:11.919Z,99525.25
2023-07-01T12:42:40.124Z,99520.25
2023-07-01T12:45:09.253Z,99522.63
2023-07-01T12:47:41.397Z,99500.03
2023-07-01T12:52:56.535Z,99525.78
2023-07-01T12:55:24.756Z,99523.84
2023-07-01T12:57:53.414Z,99506.06
2023-07-01T13:00:22.490Z,99514.19
2023-07-01T13:02:54.250Z,99513.88
2023-07-01T13:05:26.514Z,99508.44
2023-07-01T13:08:00.562Z,99498.81
2023-07-01T13:10:29.030Z,99497.97
2023-07-01T13:12:58.750Z,99495.94
2023-07-01T13:15:31.974Z,99491.44
2023-07-01T13:18:02.206Z,99487.69
2023-07-01T13:20:30.373Z,99497.44
2023-07-01T13:23:02.132Z,99486.84
2023-07-01T13:25:33.217Z,99487.13
2023-07-01T13:28:04.719Z,99483.84
2023-07-01T13:30:41.676Z,99496.72
2023-07-01T13:33:19.237Z,99499.44
2023-07-01T13:35:49.903Z,99483.72
2023-07-01T13:38:18.883Z,99483.16
2023-07-01T13:40:51.245Z,99485.44
2023-07-01T13:43:21.349Z,99484.59
2023-07-01T13:45:49.860Z,99483.41
2023-07-01T13:48:35.066Z,99483.94
2023-07-01T13:51:03.891Z,99481.69
2023-07-01T13:53:33.610Z,99481.84
2023-07-01T13:56:03.634Z,99471.28
2023-07-01T13:58:32.475Z,99475.63
2023-07-01T14:01:01.284Z,99477.41
2023-07-01T14:03:49.593Z,99470.31
2023-07-01T14:06:19.093Z,99471.69
2023-07-01T14:08:47.993Z,99470.63
2023-07-01T14:11:22.072Z,99468.31
2023-07-01T14:13:53.810Z,99464.78
2023-07-01T14:16:25.334Z,99474.97
2023-07-01T14:19:00.182Z,99466.84
2023-07-01T14:21:31.506Z,99470.00
2023-07-01T14:24:06.125Z,99471.38
2023-07-01T14:26:42.643Z,99456.72
2023-07-01T14:29:15.656Z,99460.50
2023-07-01T14:31:46.902Z,99465.84
2023-07-01T14:34:19.611Z,99464.47
2023-07-01T14:36:54.116Z,99466.66
2023-07-01T14:39:43.262Z,99463.78
2023-07-01T14:42:11.927Z,99460.41
2023-07-01T14:44:40.083Z,99459.34
2023-07-01T14:47:08.962Z,99462.78
2023-07-01T14:49:41.673Z,99459.34
2023-07-01T14:52:10.622Z,99459.03
2023-07-01T14:54:41.212Z,99472.91
2023-07-01T14:57:09.420Z,99461.34
2023-07-01T14:59:38.050Z,99461.91
2023-07-01T15:02:06.393Z,99464.78
2023-07-01T15:04:36.793Z,99469.94
2023-07-01T15:07:06.689Z,99463.50
2023-07-01T15:09:34.872Z,99429.00
2023-07-01T15:12:03.118Z,99463.41
2023-07-01T15:14:31.325Z,99459.69
2023-07-01T15:16:59.554Z,99466.97
2023-07-01T15:19:27.858Z,99466.13
2023-07-01T15:21:58.462Z,99463.81
2023-07-01T15:24:28.131Z,99452.25
2023-07-01T15:26:59.475Z,99454.41
2023-07-01T15:29:29.472Z,99458.25
2023-07-01T15:31:57.649Z,99452.53
2023-07-01T15:34:26.274Z,99450.38
2023-07-01T15:36:56.536Z,99455.66
2023-07-01T15:39:28.589Z,99457.13
2023-07-01T15:41:57.025Z,99450.25
2023-07-01T15:44:26.431Z,99454.69
2023-07-01T15:46:59.493Z,99453.41
2023-07-01T15:49:30.643Z,99447.13
2023-07-01T15:51:59.107Z,99453.53
2023-07-01T15:54:28.754Z,99446.41
2023-07-01T15:56:56.927Z,99441.81
2023-07-01T15:59:29.672Z,99441.00
2023-07-01T16:01:59.343Z,99439.41
2023-07-01T16:04:27.915Z,99426.84
2023-07-01T16:06:56.356Z,99427.28
2023-07-01T16:13:34.655Z,99435.41
2023-07-01T16:16:08.557Z,99436.69
2023-07-01T16:18:47.446Z,99433.09
2023-07-01T16:21:17.108Z,99433.34
2023-07-01T16:23:51.225Z,99432.94
2023-07-01T16:26:30.787Z,99434.38
2023-07-01T16:29:00.586Z,99433.50
2023-07-01T16:31:40.291Z,99427.78
2023-07-01T16:34:09.440Z,99423.66
2023-07-01T16:36:38.259Z,99414.28
2023-07-01T16:39:11.059Z,99429.66
2023-07-01T16:41:40.404Z,99429.09
2023-07-01T16:44:12.477Z,99433.63
2023-07-01T16:46:42.092Z,99419.56
2023-07-01T16:49:12.514Z,99420.28
2023-07-01T16:51:44.028Z,99419.69
2023-07-01T16:54:27.216Z,99416.94
2023-07-01T16:56:57.035Z,99416.78
2023-07-01T16:59:43.475Z,99418.69
2023-07-01T17:03:05.419Z,99416.66
2023-07-01T17:05:36.906Z,99418.97
2023-07-01T17:08:07.878Z,99427.50
2023-07-01T17:10:39.886Z,99414.72
2023-07-01T17:13:20.628Z,99414.81
2023-07-01T17:15:53.280Z,99419.16
2023-07-01T17:18:25.148Z,99424.72
2023-07-01T17:20:54.378Z,99427.53
2023-07-01T17:23:23.258Z,99421.91
2023-07-01T17:25:51.572Z,99418.78
2023-07-01T17:28:19.781Z,99414.81
2023-07-01T17:30:48.139Z,99430.22
2023-07-01T17:33:17.749Z,99437.69
2023-07-01T17:35:46.008Z,99430.97
2023-07-01T17:38:16.697Z,99439.09
2023-07-01T17:40:47.870Z,99446.97
2023-07-01T17:43:16.353Z,99436.25
2023-07-01T17:45:44.841Z,99452.81
2023-07-01T17:48:13.014Z,99451.50
2023-07-01T17:50:44.994Z,99439.94
2023-07-01T17:53:15.634Z,99439.81
2023-07-01T17:55:43.982Z,99426.25
2023-07-01T17:58:12.167Z,99441.09
2023-07-01T18:00:40.312Z,99438.38
2023-07-01T18:03:08.718Z,99423.00
2023-07-01T18:05:39.376Z,99435.13
2023-07-01T18:08:10.306Z,99439.81
2023-07-01T18:10:38.574Z,99435.69
2023-07-01T18:13:06.840Z,99428.56
2023-07-01T18:15:35.060Z,99430.56
2023-07-01T18:18:03.455Z,99437.84
2023-07-01T18:20:38.748Z,99432.72
2023-07-01T18:23:19.250Z,99443.69
2023-07-01T18:25:52.236Z,99440.13
2023-07-01T18:28:20.384Z,99439.56
2023-07-01T18:30:48.616Z,99432.28
2023-07-01T18:33:19.396Z,99440.13
2023-07-01T18:35:47.808Z,99442.72
2023-07-01T18:38:16.171Z,99448.81
2023-07-01T18:40:45.961Z,99448.25
2023-07-01T18:43:14.255Z,99451.66
2023-07-01T18:48:14.251Z,99444.00
2023-07-01T18:50:43.108Z,99440.63
2023-07-01T18:53:11.269Z,99440.16
2023-07-01T18:55:41.902Z,99440.28
2023-07-01T18:58:12.461Z,99440.97
2023-07-01T19:00:44.959Z,99439.56
2023-07-01T19:03:13.638Z,99443.16
2023-07-01T19:05:42.552Z,99452.94
2023-07-01T19:08:11.585Z,99449.94
2023-07-01T19:10:40.802Z,99458.50
2023-07-01T19:13:11.259Z,99462.59
2023-07-01T19:15:39.657Z,99461.59
2023-07-01T19:18:08.646Z,99467.59
2023-07-01T19:20:42.042Z,99463.28
2023-07-01T19:23:10.957Z,99469.41
2023-07-01T19:25:40.758Z,99475.28
2023-07-01T19:28:15.381Z,99471.78
2023-07-01T19:30:46.032Z,99418.59
2023-07-01T19:33:19.537Z,99476.81
2023-07-01T19:35:50.249Z,99463.59
2023-07-01T19:38:19.156Z,99488.94
2023-07-01T19:40:50.243Z,99480.94
2023-07-01T19:43:20.423Z,99472.72
2023-07-01T19:45:50.072Z,99488.81
2023-07-01T19:48:21.053Z,99495.53
2023-07-01T19:50:49.405Z,99492.63
2023-07-01T19:53:19.099Z,99486.69
2023-07-01T19:55:50.187Z,99509.41
2023-07-01T19:58:24.362Z,99499.84
2023-07-01T20:00:53.346Z,99503.97
2023-07-01T20:03:22.806Z,99512.50
2023-07-01T20:05:53.245Z,99501.53
2023-07-01T20:08:22.212Z,99510.44
2023-07-01T20:10:50.786Z,99525.75
2023-07-01T20:13:20.727Z,99524.63
2023-07-01T20:15:51.759Z,99524.63
2023-07-01T20:18:20.638Z,99532.16
2023-07-01T20:20:49.026Z,99535.19
2023-07-01T20:23:17.514Z,99533.63
2023-07-01T20:25:48.368Z,99533.16
2023-07-01T20:28:20.832Z,99541.75
2023-07-01T20:30:49.538Z,99537.47
2023-07-01T20:33:21.297Z,99547.88
2023-07-01T20:35:49.943Z,99550.25
2023-07-01T20:38:18.593Z,99544.34
2023-07-01T20:40:47.041Z,99550.09
2023-07-01T20:43:16.041Z,99544.94
2023-07-01T20:45:45.966Z,99548.75
2023-07-01T20:48:14.459Z,99546.56
2023-07-01T20:50:45.684Z,99557.88
2023-07-01T20:53:14.050Z,99560.91
2023-07-01T20:55:52.198Z,99556.88
2023-07-01T20:58:20.646Z,99552.56
2023-07-01T21:00:50.594Z,99553.69
2023-07-01T21:03:19.416Z,99560.81
2023-07-01T21:05:48.066Z,99555.03
2023-07-01T21:08:16.688Z,99561.91
2023-07-01T21:14:19.354Z,99564.09
2023-07-01T21:16:50.359Z,99564.00
2023-07-01T21:19:19.564Z,99571.34
2023-07-01T21:21:48.654Z,99574.91
2023-07-01T21:24:20.290Z,99571.00
2023-07-01T21:26:49.009Z,99583.78
2023-07-01T21:29:19.735Z,99580.84
2023-07-01T21:31:51.079Z,99585.41
2023-07-01T21:34:20.926Z,99582.91
2023-07-01T21:36:51.174Z,99590.78
2023-07-01T21:39:25.879Z,99584.72
2023-07-01T21:41:54.264Z,99587.31
2023-07-01T21:44:24.665Z,99583.63
2023-07-01T21:46:53.158Z,99587.19
2023-07-01T21:59:08.154Z,99583.97
2023-07-01T22:01:42.464Z,99591.66
2023-07-01T22:04:15.443Z,99574.38
2023-07-01T22:06:46.709Z,99595.09
2023-07-01T22:09:16.558Z,99600.00
2023-07-01T22:11:44.936Z,99600.06
2023-07-01T22:14:14.218Z,99603.22
2023-07-01T22:16:43.859Z,99607.69
2023-07-01T22:19:12.366Z,99615.00
2023-07-01T22:21:42.898Z,99616.66
2023-07-01T22:24:13.437Z,99612.56
2023-07-01T22:26:42.077Z,99620.38
2023-07-01T22:29:10.627Z,99621.25
2023-07-01T22:31:38.969Z,99627.59
2023-07-01T22:34:08.939Z,99628.72
2023-07-01T22:36:39.669Z,99634.72
2023-07-01T22:39:12.779Z,99634.94
2023-07-01T22:41:41.047Z,99636.22
2023-07-01T22:44:11.935Z,99633.63
2023-07-01T22:46:40.251Z,99640.94
2023-07-01T22:49:09.991Z,99639.94
2023-07-01T22:51:38.339Z,99640.38
2023-07-01T22:54:06.703Z,99641.22
2023-07-01T22:56:37.582Z,99639.34
2023-07-01T22:59:09.164Z,99643.84
2023-07-01T23:01:38.639Z,99644.84
2023-07-01T23:04:07.055Z,99636.50
2023-07-01T23:06:37.452Z,99635.00
2023-07-01T23:09:08.578Z,99647.78
2023-07-01T23:11:37.274Z,99648.81
2023-07-01T23:14:05.601Z,99649.41
2023-07-01T23:16:34.463Z,99647.25
2023-07-01T23:19:03.025Z,99655.38
2023-07-01T23:21:35.456Z,99651.75
2023-07-01T23:24:05.676Z,99654.09
2023-07-01T23:26:36.431Z,99650.16
2023-07-01T23:29:05.477Z,99652.47
2023-07-01T23:31:33.666Z,99651.72
2023-07-01T23:34:01.873Z,99655.19
2023-07-01T23:36:30.801Z,99658.25
2023-07-01T23:38:59.604Z,99661.25
2023-07-01T23:41:29.139Z,99654.25
2023-07-01T23:43:57.684Z,99653.00
2023-07-01T23:46:25.908Z,99654.25
2023-07-01T23:49:19.977Z,99654.81
2023-07-01T23:51:48.278Z,99663.06
2023-07-01T23:54:16.936Z,99639.28
2023-07-01T23:56:55.107Z,99659.44
2023-07-01T23:59:46.496Z,99675.06
